createdAt,value
2023-05-11T00:00:29.082Z,12.30
2023-05-11T00:01:30.518Z,12.20
2023-05-11T00:02:31.964Z,12.20
2023-05-11T00:03:33.915Z,12.20
2023-05-11T00:04:35.492Z,12.20
2023-05-11T00:05:37.212Z,12.20
2023-05-11T00:06:38.850Z,12.10
2023-05-11T00:07:40.564Z,12.10
2023-05-11T00:08:41.990Z,12.10
2023-05-11T00:09:43.473Z,12.20
2023-05-11T00:10:48.592Z,12.20
2023-05-11T00:11:52.490Z,12.20
2023-05-11T00:12:54.110Z,12.20
2023-05-11T00:13:55.751Z,12.20
2023-05-11T00:14:57.375Z,12.10
2023-05-11T00:15:59.008Z,12.20
2023-05-11T00:17:00.411Z,12.10
2023-05-11T00:18:02.053Z,12.10
2023-05-11T00:19:03.801Z,12.10
2023-05-11T00:20:06.246Z,12.10
2023-05-11T00:21:08.149Z,12.20
2023-05-11T00:22:09.786Z,12.30
2023-05-11T00:23:11.556Z,12.20
2023-05-11T00:24:12.934Z,12.20
2023-05-11T00:25:14.470Z,12.20
2023-05-11T00:26:15.866Z,12.20
2023-05-11T00:27:18.837Z,12.20
2023-05-11T00:28:22.123Z,12.20
2023-05-11T00:29:24.014Z,12.20
2023-05-11T00:30:25.767Z,12.20
2023-05-11T00:31:30.101Z,12.20
2023-05-11T00:32:32.306Z,12.20
2023-05-11T00:33:34.156Z,12.30
2023-05-11T00:34:35.774Z,12.30
2023-05-11T00:35:37.418Z,12.20
2023-05-11T00:36:41.145Z,12.20
2023-05-11T00:37:43.094Z,12.20
2023-05-11T00:38:44.691Z,12.20
2023-05-11T00:39:46.226Z,12.20
2023-05-11T00:40:49.297Z,12.20
2023-05-11T00:41:50.761Z,12.20
2023-05-11T00:42:52.205Z,12.20
2023-05-11T00:43:53.983Z,12.20
2023-05-11T00:44:55.389Z,12.20
2023-05-11T00:45:56.800Z,12.20
2023-05-11T00:46:58.669Z,12.20
2023-05-11T00:48:00.496Z,12.20
2023-05-11T00:49:02.899Z,12.20
2023-05-11T00:50:04.787Z,12.20
2023-05-11T00:51:06.979Z,12.20
2023-05-11T00:52:08.725Z,12.20
2023-05-11T00:53:11.599Z,12.20
2023-05-11T00:54:15.450Z,12.20
2023-05-11T00:55:19.985Z,12.20
2023-05-11T00:56:22.328Z,12.10
2023-05-11T00:57:24.106Z,12.20
2023-05-11T00:58:25.750Z,12.20
2023-05-11T00:59:27.441Z,12.20
2023-05-11T01:00:28.912Z,12.20
2023-05-11T01:01:30.846Z,12.20
2023-05-11T01:02:33.634Z,12.30
2023-05-11T01:03:35.845Z,12.30
2023-05-11T01:04:37.651Z,12.30
2023-05-11T01:05:49.709Z,12.30
2023-05-11T01:07:21.590Z,12.30
2023-05-11T01:08:51.206Z,12.30
2023-05-11T01:10:01.033Z,12.30
2023-05-11T01:11:17.812Z,12.40
2023-05-11T01:12:41.183Z,12.30
2023-05-11T01:13:46.264Z,12.40
2023-05-11T01:14:55.987Z,12.40
2023-05-11T01:15:58.323Z,12.40
2023-05-11T01:17:05.947Z,12.30
2023-05-11T01:18:37.476Z,12.30
2023-05-11T01:19:49.876Z,12.30
2023-05-11T01:20:56.744Z,12.30
2023-05-11T01:21:59.979Z,12.40
2023-05-11T01:23:40.201Z,12.40
2023-05-11T01:25:14.195Z,12.30
2023-05-11T01:26:37.312Z,12.30
2023-05-11T01:28:20.436Z,12.20
2023-05-11T01:29:51.873Z,12.20
2023-05-11T01:31:10.732Z,12.20
2023-05-11T01:32:26.135Z,12.10
2023-05-11T01:33:33.685Z,12.10
2023-05-11T01:34:39.431Z,12.10
2023-05-11T01:35:50.903Z,12.10
2023-05-11T01:37:05.129Z,12.20
2023-05-11T01:38:11.578Z,12.20
2023-05-11T01:39:16.690Z,12.20
2023-05-11T01:40:21.544Z,12.10
2023-05-11T01:41:24.704Z,12.10
2023-05-11T01:42:32.295Z,12.10
2023-05-11T01:43:36.827Z,12.10
2023-05-11T01:44:41.778Z,12.10
2023-05-11T01:45:48.513Z,12.00
2023-05-11T01:46:53.094Z,12.00
2023-05-11T01:47:56.367Z,12.00
2023-05-11T01:48:59.788Z,12.00
2023-05-11T01:50:02.860Z,12.00
2023-05-11T01:51:05.711Z,12.00
2023-05-11T01:52:12.262Z,12.00
2023-05-11T01:53:15.433Z,12.00
2023-05-11T01:54:19.128Z,12.00
2023-05-11T01:55:23.514Z,12.00
2023-05-11T01:56:26.734Z,11.90
2023-05-11T01:57:30.622Z,11.90
2023-05-11T01:58:34.271Z,11.90
2023-05-11T01:59:39.311Z,11.90
2023-05-11T02:00:43.407Z,11.90
2023-05-11T02:01:45.958Z,11.90
2023-05-11T02:02:50.050Z,12.00
2023-05-11T02:03:52.462Z,12.00
2023-05-11T02:04:55.508Z,12.00
2023-05-11T02:05:58.373Z,12.00
2023-05-11T02:07:01.208Z,12.00
2023-05-11T02:08:06.015Z,11.90
2023-05-11T02:09:09.427Z,11.90
2023-05-11T02:10:13.188Z,11.90
2023-05-11T02:11:15.809Z,11.90
2023-05-11T02:12:22.117Z,11.90
2023-05-11T02:13:26.543Z,12.00
2023-05-11T02:14:33.977Z,12.00
2023-05-11T02:15:39.608Z,12.00
2023-05-11T02:16:41.945Z,11.90
2023-05-11T02:17:44.072Z,11.90
2023-05-11T02:18:46.627Z,12.00
2023-05-11T02:19:51.452Z,12.00
2023-05-11T02:20:53.985Z,11.90
2023-05-11T02:21:56.700Z,11.90
2023-05-11T02:22:58.754Z,11.90
2023-05-11T02:24:04.987Z,11.80
2023-05-11T02:25:09.227Z,11.90
2023-05-11T02:26:12.925Z,11.80
2023-05-11T02:27:15.169Z,11.80
2023-05-11T02:28:16.577Z,11.70
2023-05-11T02:29:18.125Z,11.70
2023-05-11T02:30:19.826Z,11.70
2023-05-11T02:31:30.727Z,11.60
2023-05-11T02:32:38.100Z,11.60
2023-05-11T02:33:45.349Z,11.60
2023-05-11T02:34:54.283Z,11.60
2023-05-11T02:35:57.496Z,11.60
2023-05-11T02:37:09.230Z,11.50
2023-05-11T02:38:12.770Z,11.50
2023-05-11T02:39:19.349Z,11.50
2023-05-11T02:40:26.459Z,11.50
2023-05-11T02:41:30.689Z,11.50
2023-05-11T02:42:39.033Z,11.50
2023-05-11T02:43:46.659Z,11.50
2023-05-11T02:44:58.397Z,11.50
2023-05-11T02:46:05.108Z,11.50
2023-05-11T02:47:10.727Z,11.50
2023-05-11T02:48:22.707Z,11.40
2023-05-11T02:49:29.321Z,11.40
2023-05-11T02:50:32.371Z,11.40
2023-05-11T02:51:36.896Z,11.30
2023-05-11T02:52:45.501Z,11.30
2023-05-11T02:53:48.733Z,11.30
2023-05-11T02:54:52.780Z,11.30
2023-05-11T02:55:55.486Z,11.30
2023-05-11T02:56:57.956Z,11.30
2023-05-11T02:58:00.091Z,11.20
2023-05-11T02:59:02.783Z,11.20
2023-05-11T03:00:05.266Z,11.20
2023-05-11T03:01:08.035Z,11.20
2023-05-11T03:02:09.861Z,11.10
2023-05-11T03:03:11.994Z,11.10
2023-05-11T03:04:14.926Z,11.10
2023-05-11T03:05:16.949Z,11.10
2023-05-11T03:06:18.636Z,11.10
2023-05-11T03:07:20.922Z,11.10
2023-05-11T03:08:22.632Z,11.10
2023-05-11T03:09:24.368Z,11.10
2023-05-11T03:10:27.810Z,11.10
2023-05-11T03:11:29.542Z,11.10
2023-05-11T03:12:33.921Z,11.00
2023-05-11T03:13:37.602Z,11.10
2023-05-11T03:14:41.107Z,11.10
2023-05-11T03:15:43.791Z,11.10
2023-05-11T03:16:47.207Z,11.00
2023-05-11T03:17:51.540Z,11.10
2023-05-11T03:18:55.660Z,11.00
2023-05-11T03:19:59.705Z,11.10
2023-05-11T03:21:02.156Z,11.00
2023-05-11T03:22:04.941Z,11.10
2023-05-11T03:23:07.669Z,11.10
2023-05-11T03:24:10.391Z,11.10
2023-05-11T03:25:13.065Z,11.10
2023-05-11T03:26:20.107Z,11.10
2023-05-11T03:27:22.208Z,11.10
2023-05-11T03:28:25.651Z,11.10
2023-05-11T03:29:44.760Z,11.10
2023-05-11T03:30:48.129Z,11.10
2023-05-11T03:31:51.239Z,11.00
2023-05-11T03:32:55.381Z,11.10
2023-05-11T03:33:57.553Z,11.10
2023-05-11T03:34:59.346Z,11.10
2023-05-11T03:36:03.398Z,11.10
2023-05-11T03:37:11.399Z,11.10
2023-05-11T03:38:14.914Z,11.10
2023-05-11T03:39:17.383Z,11.10
2023-05-11T03:40:21.251Z,11.10
2023-05-11T03:41:28.943Z,11.10
2023-05-11T03:42:33.308Z,11.10
2023-05-11T03:43:36.192Z,11.10
2023-05-11T03:44:38.615Z,11.10
2023-05-11T03:45:42.856Z,11.10
2023-05-11T03:46:45.690Z,11.10
2023-05-11T03:47:49.992Z,11.10
2023-05-11T03:48:52.524Z,11.10
2023-05-11T03:49:58.439Z,11.10
2023-05-11T03:51:00.350Z,11.10
2023-05-11T03:52:02.854Z,11.10
2023-05-11T03:53:05.715Z,11.10
2023-05-11T03:54:07.679Z,11.10
2023-05-11T03:55:10.392Z,11.10
2023-05-11T03:56:12.344Z,11.10
2023-05-11T03:57:15.072Z,11.20
2023-05-11T03:58:16.865Z,11.10
2023-05-11T03:59:18.942Z,11.10
2023-05-11T04:00:20.685Z,11.10
2023-05-11T04:01:22.837Z,11.10
2023-05-11T04:02:24.697Z,11.10
2023-05-11T04:03:26.549Z,11.10
2023-05-11T04:04:30.917Z,11.10
2023-05-11T04:05:33.962Z,11.20
2023-05-11T04:06:38.366Z,11.20
2023-05-11T04:07:47.313Z,11.20
2023-05-11T04:08:48.943Z,11.10
2023-05-11T04:09:50.497Z,11.10
2023-05-11T04:10:52.828Z,11.10
2023-05-11T04:11:54.234Z,11.10
2023-05-11T04:12:56.256Z,11.20
2023-05-11T04:13:57.709Z,11.20
2023-05-11T04:14:59.144Z,11.10
2023-05-11T04:16:01.221Z,11.10
2023-05-11T04:17:02.751Z,11.10
2023-05-11T04:18:04.370Z,11.10
2023-05-11T04:19:07.410Z,11.10
2023-05-11T04:20:10.034Z,11.10
2023-05-11T04:21:11.768Z,11.10
2023-05-11T04:22:13.294Z,11.10
2023-05-11T04:23:15.813Z,11.10
2023-05-11T04:24:17.504Z,11.10
2023-05-11T04:25:20.172Z,11.10
2023-05-11T04:26:22.412Z,11.10
2023-05-11T04:27:24.027Z,11.10
2023-05-11T04:28:27.996Z,11.10
2023-05-11T04:29:30.692Z,11.10
2023-05-11T04:30:32.417Z,11.10
2023-05-11T04:31:34.052Z,11.10
2023-05-11T04:32:37.746Z,11.10
2023-05-11T04:33:39.199Z,11.10
2023-05-11T04:34:40.661Z,11.20
2023-05-11T04:35:43.319Z,11.20
2023-05-11T04:36:48.134Z,11.30
2023-05-11T04:37:50.527Z,11.20
2023-05-11T04:38:53.318Z,11.20
2023-05-11T04:39:56.444Z,11.20
2023-05-11T04:41:02.358Z,11.20
2023-05-11T04:42:04.006Z,11.20
2023-05-11T04:43:06.323Z,11.30
2023-05-11T04:44:08.050Z,11.30
2023-05-11T04:45:10.034Z,11.30
2023-05-11T04:46:12.127Z,11.30
2023-05-11T04:47:15.381Z,11.30
2023-05-11T04:48:20.384Z,11.30
2023-05-11T04:49:22.655Z,11.30
2023-05-11T04:50:24.789Z,11.30
2023-05-11T04:51:27.192Z,11.30
2023-05-11T04:52:28.613Z,11.30
2023-05-11T04:53:30.233Z,11.30
2023-05-11T04:54:31.966Z,11.30
2023-05-11T04:55:33.828Z,11.30
2023-05-11T04:56:40.346Z,11.30
2023-05-11T04:57:41.849Z,11.30
2023-05-11T04:58:43.829Z,11.30
2023-05-11T04:59:45.372Z,11.30
2023-05-11T05:00:46.980Z,11.40
2023-05-11T05:01:48.392Z,11.40
2023-05-11T05:02:53.034Z,11.40
2023-05-11T05:03:54.830Z,11.40
2023-05-11T05:04:56.249Z,11.50
2023-05-11T05:05:58.348Z,11.40
2023-05-11T05:06:59.767Z,11.50
2023-05-11T05:08:01.199Z,11.50
2023-05-11T05:09:02.665Z,11.40
2023-05-11T05:10:08.756Z,11.40
2023-05-11T05:11:11.182Z,11.50
2023-05-11T05:12:12.596Z,11.40
2023-05-11T05:13:16.756Z,11.40
2023-05-11T05:14:18.577Z,11.40
2023-05-11T05:15:21.263Z,11.50
2023-05-11T05:16:22.785Z,11.50
2023-05-11T05:17:24.266Z,11.50
2023-05-11T05:18:25.915Z,11.50
2023-05-11T05:19:27.335Z,11.60
2023-05-11T05:20:29.764Z,11.60
2023-05-11T05:21:32.521Z,11.60
2023-05-11T05:22:34.850Z,11.60
2023-05-11T05:23:37.242Z,11.60
2023-05-11T05:24:38.850Z,11.60
2023-05-11T05:25:40.274Z,11.60
2023-05-11T05:26:42.182Z,11.60
2023-05-11T05:27:45.513Z,11.70
2023-05-11T05:28:51.973Z,11.70
2023-05-11T05:29:54.989Z,11.70
2023-05-11T05:30:58.806Z,11.70
2023-05-11T05:32:01.995Z,11.70
2023-05-11T05:33:04.176Z,11.80
2023-05-11T05:34:06.608Z,11.90
2023-05-11T05:35:09.008Z,11.90
2023-05-11T05:36:10.687Z,11.90
2023-05-11T05:37:12.237Z,12.00
2023-05-11T05:38:13.780Z,12.00
2023-05-11T05:39:15.454Z,12.00
2023-05-11T05:40:17.122Z,12.00
2023-05-11T05:41:23.121Z,12.00
2023-05-11T05:42:25.675Z,12.10
2023-05-11T05:43:27.225Z,12.10
2023-05-11T05:44:29.142Z,12.10
2023-05-11T05:45:30.879Z,12.10
2023-05-11T05:46:32.553Z,12.10
2023-05-11T05:47:34.434Z,12.10
2023-05-11T05:48:35.988Z,12.10
2023-05-11T05:49:37.358Z,12.10
2023-05-11T05:50:40.828Z,12.10
2023-05-11T05:51:42.265Z,12.20
2023-05-11T05:52:43.749Z,12.20
2023-05-11T05:53:46.940Z,12.20
2023-05-11T05:54:48.383Z,12.20
2023-05-11T05:55:50.116Z,12.30
2023-05-11T05:56:51.944Z,12.20
2023-05-11T05:57:54.773Z,12.30
2023-05-11T05:58:56.562Z,12.30
2023-05-11T05:59:58.399Z,12.40
2023-05-11T06:01:00.912Z,12.30
2023-05-11T06:02:02.896Z,12.40
2023-05-11T06:03:05.433Z,12.40
2023-05-11T06:04:07.159Z,12.50
2023-05-11T06:05:09.228Z,12.50
2023-05-11T06:06:11.937Z,12.40
2023-05-11T06:07:16.927Z,12.40
2023-05-11T06:08:18.349Z,12.40
2023-05-11T06:09:19.864Z,12.30
2023-05-11T06:10:21.307Z,12.30
2023-05-11T06:11:23.110Z,12.40
2023-05-11T06:12:26.574Z,12.50
2023-05-11T06:13:30.257Z,12.40
2023-05-11T06:14:33.893Z,12.40
2023-05-11T06:15:37.196Z,12.40
2023-05-11T06:16:45.498Z,12.50
2023-05-11T06:17:47.553Z,12.60
2023-05-11T06:18:49.505Z,12.60
2023-05-11T06:19:51.181Z,12.60
2023-05-11T06:20:56.870Z,12.60
2023-05-11T06:22:00.910Z,12.70
2023-05-11T06:23:06.742Z,12.70
2023-05-11T06:24:11.956Z,12.80
2023-05-11T06:25:16.613Z,12.80
2023-05-11T06:26:24.967Z,12.80
2023-05-11T06:27:27.103Z,12.90
2023-05-11T06:28:31.311Z,13.00
2023-05-11T06:29:36.374Z,12.90
2023-05-11T06:30:39.095Z,12.90
2023-05-11T06:31:42.688Z,13.00
2023-05-11T06:32:44.603Z,13.00
2023-05-11T06:33:47.295Z,13.00
2023-05-11T06:34:56.493Z,13.10
2023-05-11T06:35:58.923Z,13.20
2023-05-11T06:37:03.454Z,13.20
2023-05-11T06:38:05.152Z,13.30
2023-05-11T06:39:07.857Z,13.40
2023-05-11T06:40:10.374Z,13.50
2023-05-11T06:41:11.946Z,13.50
2023-05-11T06:42:13.935Z,13.50
2023-05-11T06:43:15.599Z,13.50
2023-05-11T06:44:19.450Z,13.60
2023-05-11T06:45:21.675Z,13.50
2023-05-11T06:46:23.904Z,13.60
2023-05-11T06:47:25.455Z,13.60
2023-05-11T06:48:29.674Z,13.70
2023-05-11T06:49:31.068Z,13.80
2023-05-11T06:50:32.914Z,13.80
2023-05-11T06:51:34.619Z,13.90
2023-05-11T06:52:36.358Z,13.80
2023-05-11T06:53:38.620Z,13.80
2023-05-11T06:54:40.085Z,13.90
2023-05-11T06:55:41.693Z,13.90
2023-05-11T06:56:43.282Z,13.90
2023-05-11T06:57:44.652Z,13.90
2023-05-11T06:58:46.328Z,13.50
2023-05-11T06:59:47.952Z,13.40
2023-05-11T07:00:49.389Z,13.30
2023-05-11T07:01:50.892Z,13.20
2023-05-11T07:02:52.797Z,13.30
2023-05-11T07:03:55.073Z,13.40
2023-05-11T07:04:56.544Z,13.30
2023-05-11T07:05:57.978Z,13.30
2023-05-11T07:06:59.379Z,13.20
2023-05-11T07:08:00.770Z,13.20
2023-05-11T07:09:03.596Z,13.30
2023-05-11T07:10:06.699Z,13.30
2023-05-11T07:11:08.428Z,13.20
2023-05-11T07:12:09.779Z,13.20
2023-05-11T07:13:11.613Z,13.20
2023-05-11T07:14:13.039Z,13.20
2023-05-11T07:15:14.481Z,13.20
2023-05-11T07:16:16.415Z,13.10
2023-05-11T07:17:17.994Z,13.20
2023-05-11T07:18:20.271Z,13.00
2023-05-11T07:19:21.729Z,13.00
2023-05-11T07:20:23.118Z,13.00
2023-05-11T07:21:24.892Z,13.00
2023-05-11T07:22:26.427Z,13.00
2023-05-11T07:23:27.911Z,12.90
2023-05-11T07:24:48.412Z,12.90
2023-05-11T07:25:49.872Z,13.00
2023-05-11T07:26:51.981Z,13.00
2023-05-11T07:27:53.401Z,13.00
2023-05-11T07:28:55.095Z,13.10
2023-05-11T07:29:56.705Z,13.20
2023-05-11T07:30:58.095Z,13.20
2023-05-11T07:31:59.733Z,13.20
2023-05-11T07:33:01.286Z,13.30
2023-05-11T07:34:02.715Z,13.30
2023-05-11T07:35:04.558Z,13.50
2023-05-11T07:36:07.256Z,13.50
2023-05-11T07:37:08.628Z,13.60
2023-05-11T07:38:11.901Z,13.70
2023-05-11T07:39:16.083Z,13.80
2023-05-11T07:40:18.061Z,14.00
2023-05-11T07:41:22.129Z,13.90
2023-05-11T07:42:23.756Z,13.90
2023-05-11T07:43:25.629Z,13.80
2023-05-11T07:44:27.279Z,13.80
2023-05-11T07:45:28.708Z,13.70
2023-05-11T07:46:30.812Z,13.80
2023-05-11T07:47:33.643Z,13.90
2023-05-11T07:48:37.256Z,14.00
2023-05-11T07:49:43.534Z,14.00
2023-05-11T07:50:45.904Z,14.00
2023-05-11T07:51:47.587Z,14.20
2023-05-11T07:52:49.405Z,14.30
2023-05-11T07:53:51.012Z,14.40
2023-05-11T07:54:52.930Z,14.40
2023-05-11T07:55:54.852Z,14.50
2023-05-11T07:56:56.367Z,14.50
2023-05-11T07:57:57.718Z,14.60
2023-05-11T07:58:59.123Z,14.50
2023-05-11T08:00:00.627Z,14.50
2023-05-11T08:01:02.022Z,14.50
2023-05-11T08:02:05.682Z,14.50
2023-05-11T08:03:07.294Z,14.50
2023-05-11T08:04:09.541Z,14.70
2023-05-11T08:05:11.806Z,14.70
2023-05-11T08:06:13.410Z,14.40
2023-05-11T08:07:14.911Z,14.50
2023-05-11T08:08:16.365Z,14.40
2023-05-11T08:09:18.317Z,14.50
2023-05-11T08:10:20.164Z,14.40
2023-05-11T08:11:22.321Z,14.30
2023-05-11T08:12:23.845Z,14.20
2023-05-11T08:13:25.967Z,14.10
2023-05-11T08:14:27.684Z,14.10
2023-05-11T08:15:29.397Z,14.10
2023-05-11T08:16:31.056Z,14.10
2023-05-11T08:17:33.185Z,14.10
2023-05-11T08:18:34.884Z,14.10
2023-05-11T08:19:36.286Z,14.10
2023-05-11T08:20:39.138Z,14.10
2023-05-11T08:21:40.564Z,14.20
2023-05-11T08:22:41.940Z,14.20
2023-05-11T08:23:45.171Z,14.30
2023-05-11T08:24:46.926Z,14.30
2023-05-11T08:25:52.646Z,14.30
2023-05-11T08:26:54.046Z,14.30
2023-05-11T08:27:55.791Z,14.40
2023-05-11T08:28:57.135Z,14.50
2023-05-11T08:29:58.564Z,14.40
2023-05-11T08:31:00.701Z,14.30
2023-05-11T08:32:02.501Z,14.20
2023-05-11T08:33:11.921Z,14.40
2023-05-11T08:34:25.009Z,14.50
2023-05-11T08:35:26.639Z,14.40
2023-05-11T08:36:28.125Z,14.50
2023-05-11T08:37:29.961Z,14.50
2023-05-11T08:38:31.613Z,14.50
2023-05-11T08:40:46.756Z,14.10
2023-05-11T08:41:51.239Z,14.10
2023-05-11T08:42:55.558Z,13.90
2023-05-11T08:43:57.876Z,13.90
2023-05-11T08:45:00.066Z,13.90
2023-05-11T08:46:04.459Z,13.90
2023-05-11T08:47:21.875Z,13.80
2023-05-11T08:48:24.449Z,13.80
2023-05-11T08:49:26.347Z,13.60
2023-05-11T08:50:28.310Z,13.70
2023-05-11T08:51:30.056Z,13.90
2023-05-11T08:52:31.618Z,14.00
2023-05-11T08:53:33.498Z,14.00
2023-05-11T08:54:35.003Z,14.00
2023-05-11T08:55:39.345Z,14.10
2023-05-11T08:56:41.990Z,14.10
2023-05-11T08:57:46.489Z,14.10
2023-05-11T08:58:50.016Z,14.30
2023-05-11T08:59:53.243Z,14.40
2023-05-11T09:00:55.071Z,14.60
2023-05-11T09:01:58.496Z,14.70
2023-05-11T09:03:00.230Z,14.90
2023-05-11T09:04:02.355Z,14.90
2023-05-11T09:05:04.477Z,14.70
2023-05-11T09:06:07.897Z,14.90
2023-05-11T09:07:11.738Z,15.00
2023-05-11T09:08:14.788Z,15.20
2023-05-11T09:09:18.179Z,15.20
2023-05-11T09:10:19.853Z,15.20
2023-05-11T09:11:22.822Z,15.30
2023-05-11T09:12:26.279Z,15.30
2023-05-11T09:13:29.251Z,15.40
2023-05-11T09:14:30.855Z,15.60
2023-05-11T09:15:36.864Z,15.40
2023-05-11T09:16:39.582Z,15.40
2023-05-11T09:17:41.016Z,15.10
2023-05-11T09:18:52.735Z,15.10
2023-05-11T09:20:05.730Z,14.90
2023-05-11T09:21:07.499Z,14.70
2023-05-11T09:22:08.894Z,14.60
2023-05-11T09:23:10.476Z,14.50
2023-05-11T09:24:13.170Z,14.30
2023-05-11T09:25:16.960Z,14.20
2023-05-11T09:26:24.385Z,14.00
2023-05-11T09:27:26.021Z,14.00
2023-05-11T09:28:35.375Z,14.00
2023-05-11T09:29:37.267Z,13.90
2023-05-11T09:30:39.236Z,14.00
2023-05-11T09:31:42.852Z,14.00
2023-05-11T09:32:58.982Z,14.10
2023-05-11T09:34:26.777Z,14.10
2023-05-11T09:35:33.359Z,14.20
2023-05-11T09:36:35.107Z,14.10
2023-05-11T09:37:36.761Z,14.10
2023-05-11T09:38:38.171Z,14.10
2023-05-11T09:39:53.304Z,14.10
2023-05-11T09:41:03.267Z,14.10
2023-05-11T09:42:16.705Z,14.10
2023-05-11T09:43:24.039Z,14.10
2023-05-11T09:44:31.885Z,14.10
2023-05-11T09:45:41.609Z,14.10
2023-05-11T09:46:44.856Z,14.20
2023-05-11T09:47:48.446Z,14.20
2023-05-11T09:49:00.067Z,14.30
2023-05-11T09:50:16.414Z,14.40
2023-05-11T09:51:30.676Z,14.50
2023-05-11T09:52:32.348Z,14.60
2023-05-11T09:53:43.201Z,14.70
2023-05-11T09:54:47.871Z,14.80
2023-05-11T09:55:54.528Z,14.90
2023-05-11T09:56:58.405Z,15.00
2023-05-11T09:58:00.504Z,15.00
2023-05-11T09:59:02.166Z,15.10
2023-05-11T10:00:05.861Z,15.30
2023-05-11T10:01:14.901Z,15.30
2023-05-11T10:02:30.188Z,15.40
2023-05-11T10:03:32.571Z,15.60
2023-05-11T10:04:34.441Z,15.80
2023-05-11T10:05:36.636Z,15.90
2023-05-11T10:06:48.995Z,16.00
2023-05-11T10:08:01.203Z,16.20
2023-05-11T10:09:10.788Z,16.30
2023-05-11T10:10:13.569Z,16.50
2023-05-11T10:11:15.718Z,16.60
2023-05-11T10:12:18.737Z,16.70
2023-05-11T10:13:21.248Z,16.80
2023-05-11T10:14:24.577Z,16.90
2023-05-11T10:15:30.756Z,17.00
2023-05-11T10:16:33.067Z,17.10
2023-05-11T10:17:35.381Z,17.20
2023-05-11T10:18:37.458Z,17.30
2023-05-11T10:19:39.130Z,17.40
2023-05-11T10:20:41.131Z,17.40
2023-05-11T10:21:42.726Z,17.50
2023-05-11T10:22:46.459Z,17.60
2023-05-11T10:23:48.127Z,17.70
2023-05-11T10:24:50.872Z,17.70
2023-05-11T10:25:53.964Z,17.90
2023-05-11T10:26:57.673Z,17.90
2023-05-11T10:27:59.859Z,17.90
2023-05-11T10:29:01.949Z,17.80
2023-05-11T10:30:04.321Z,17.70
2023-05-11T10:31:08.410Z,17.50
2023-05-11T10:32:11.755Z,17.40
2023-05-11T10:33:14.078Z,17.60
2023-05-11T10:34:16.926Z,17.50
2023-05-11T10:35:19.438Z,17.40
2023-05-11T10:36:23.935Z,17.50
2023-05-11T10:37:26.494Z,17.40
2023-05-11T10:38:27.935Z,17.40
2023-05-11T10:39:30.500Z,17.40
2023-05-11T10:40:37.066Z,17.30
2023-05-11T10:41:52.456Z,17.30
2023-05-11T10:43:12.979Z,17.20
2023-05-11T10:44:40.543Z,17.10
2023-05-11T10:46:04.884Z,17.00
2023-05-11T10:47:40.822Z,16.80
2023-05-11T10:49:02.854Z,16.70
2023-05-11T10:50:29.910Z,16.60
2023-05-11T10:51:40.633Z,16.30
2023-05-11T10:53:01.828Z,16.30
2023-05-11T10:54:20.965Z,16.30
2023-05-11T10:56:06.356Z,15.90
2023-05-11T10:57:34.079Z,15.80
2023-05-11T10:58:59.697Z,15.80
2023-05-11T11:00:09.777Z,15.60
2023-05-11T11:01:39.593Z,15.70
2023-05-11T11:02:42.461Z,15.60
2023-05-11T11:03:59.620Z,15.60
2023-05-11T11:05:05.609Z,15.60
2023-05-11T11:06:23.765Z,15.50
2023-05-11T11:07:25.507Z,15.60
2023-05-11T11:08:27.139Z,15.60
2023-05-11T11:09:31.443Z,15.60
2023-05-11T11:10:34.313Z,15.60
2023-05-11T11:11:39.748Z,15.70
2023-05-11T11:13:00.969Z,15.60
2023-05-11T11:14:06.051Z,15.50
2023-05-11T11:15:08.138Z,15.60
2023-05-11T11:16:10.450Z,15.70
2023-05-11T11:17:20.843Z,15.80
2023-05-11T11:18:27.180Z,15.90
2023-05-11T11:19:31.438Z,16.00
2023-05-11T11:20:50.058Z,15.90
2023-05-11T11:21:51.504Z,16.00
2023-05-11T11:22:53.413Z,16.10
2023-05-11T11:23:55.083Z,16.30
2023-05-11T11:24:56.742Z,16.30
2023-05-11T11:25:58.239Z,16.10
2023-05-11T11:27:00.480Z,16.10
2023-05-11T11:28:02.431Z,16.10
2023-05-11T11:29:10.756Z,16.30
2023-05-11T11:30:16.976Z,16.40
2023-05-11T11:31:32.039Z,16.20
2023-05-11T11:32:33.909Z,16.10
2023-05-11T11:33:35.402Z,16.20
2023-05-11T11:34:37.413Z,16.20
2023-05-11T11:35:42.182Z,16.30
2023-05-11T11:36:56.014Z,16.40
2023-05-11T11:38:05.104Z,16.30
2023-05-11T11:39:07.152Z,16.40
2023-05-11T11:40:15.414Z,16.50
2023-05-11T11:41:33.128Z,16.50
2023-05-11T11:42:37.909Z,16.50
2023-05-11T11:43:54.206Z,16.60
2023-05-11T11:45:29.312Z,16.70
2023-05-11T11:46:31.485Z,16.90
2023-05-11T11:47:32.890Z,17.00
2023-05-11T11:48:36.521Z,17.20
2023-05-11T11:49:39.504Z,17.30
2023-05-11T11:50:42.359Z,17.40
2023-05-11T11:51:44.266Z,17.40
2023-05-11T11:52:45.762Z,17.40
2023-05-11T11:53:49.983Z,17.60
2023-05-11T11:54:51.720Z,17.70
2023-05-11T11:55:53.142Z,17.80
2023-05-11T11:56:54.621Z,17.90
2023-05-11T11:57:56.423Z,18.00
2023-05-11T11:59:03.860Z,18.10
2023-05-11T12:00:10.446Z,18.30
2023-05-11T12:01:26.884Z,18.40
2023-05-11T12:02:28.892Z,18.40
2023-05-11T12:03:30.791Z,18.60
2023-05-11T12:04:39.468Z,18.80
2023-05-11T12:05:44.452Z,18.00
2023-05-11T12:06:55.372Z,17.30
2023-05-11T12:08:03.590Z,17.20
2023-05-11T12:09:05.370Z,17.30
2023-05-11T12:10:07.736Z,17.10
2023-05-11T12:11:09.190Z,17.30
2023-05-11T12:12:11.910Z,17.40
2023-05-11T12:13:14.108Z,17.50
2023-05-11T12:14:16.074Z,17.40
2023-05-11T12:15:27.310Z,17.30
2023-05-11T12:16:29.526Z,17.40
2023-05-11T12:17:32.816Z,17.40
2023-05-11T12:18:34.759Z,17.40
2023-05-11T12:19:36.722Z,17.50
2023-05-11T12:20:38.136Z,17.70
2023-05-11T12:21:39.841Z,17.90
2023-05-11T12:22:41.926Z,18.10
2023-05-11T12:23:52.759Z,18.30
2023-05-11T12:25:00.159Z,18.40
2023-05-11T12:26:06.452Z,18.50
2023-05-11T12:27:08.058Z,18.60
2023-05-11T12:28:12.397Z,18.80
2023-05-11T12:29:15.918Z,18.90
2023-05-11T12:30:34.850Z,18.50
2023-05-11T12:31:41.316Z,18.10
2023-05-11T12:32:42.727Z,17.80
2023-05-11T12:33:51.646Z,17.80
2023-05-11T12:35:04.241Z,17.70
2023-05-11T12:36:07.005Z,17.50
2023-05-11T12:37:08.719Z,17.40
2023-05-11T12:38:11.496Z,17.60
2023-05-11T12:39:21.669Z,17.40
2023-05-11T12:40:23.909Z,17.50
2023-05-11T12:41:26.018Z,17.40
2023-05-11T12:42:27.971Z,17.20
2023-05-11T12:43:29.502Z,17.10
2023-05-11T12:44:32.772Z,17.00
2023-05-11T12:45:34.208Z,16.60
2023-05-11T12:46:36.121Z,16.40
2023-05-11T12:47:37.777Z,16.10
2023-05-11T12:48:39.481Z,15.70
2023-05-11T12:49:42.583Z,15.60
2023-05-11T12:50:47.121Z,15.30
2023-05-11T12:51:51.006Z,14.90
2023-05-11T12:52:53.129Z,14.80
2023-05-11T12:53:54.501Z,14.40
2023-05-11T12:55:00.329Z,14.10
2023-05-11T12:56:02.104Z,13.90
2023-05-11T12:57:04.922Z,13.70
2023-05-11T12:58:16.376Z,13.50
2023-05-11T12:59:43.864Z,13.40
2023-05-11T13:00:59.726Z,13.20
2023-05-11T13:02:13.425Z,13.10
2023-05-11T13:03:31.290Z,13.00
2023-05-11T13:04:33.075Z,12.90
2023-05-11T13:05:34.592Z,12.80
2023-05-11T13:06:36.637Z,12.80
2023-05-11T13:07:38.643Z,12.80
2023-05-11T13:08:44.583Z,12.70
2023-05-11T13:09:59.287Z,12.70
2023-05-11T13:11:26.788Z,12.70
2023-05-11T13:12:32.009Z,12.70
2023-05-11T13:13:34.144Z,12.60
2023-05-11T13:14:35.596Z,12.60
2023-05-11T13:15:50.854Z,12.70
2023-05-11T13:16:53.910Z,12.80
2023-05-11T13:18:02.832Z,12.80
2023-05-11T13:19:08.315Z,12.80
2023-05-11T13:20:30.617Z,12.90
2023-05-11T13:21:33.445Z,13.10
2023-05-11T13:22:35.088Z,13.10
2023-05-11T13:23:37.023Z,13.10
2023-05-11T13:24:38.510Z,13.10
2023-05-11T13:25:47.196Z,13.30
2023-05-11T13:26:49.399Z,13.30
2023-05-11T13:27:50.744Z,13.50
2023-05-11T13:29:08.692Z,13.40
2023-05-11T13:30:12.717Z,13.50
2023-05-11T13:31:14.218Z,13.70
2023-05-11T13:32:15.913Z,13.90
2023-05-11T13:33:18.752Z,14.10
2023-05-11T13:34:20.674Z,14.20
2023-05-11T13:35:22.324Z,14.40
2023-05-11T13:36:24.002Z,14.50
2023-05-11T13:37:25.913Z,14.60
2023-05-11T13:38:27.760Z,14.50
2023-05-11T13:39:29.159Z,14.40
2023-05-11T13:40:30.543Z,14.20
2023-05-11T13:41:32.542Z,14.00
2023-05-11T13:42:34.351Z,13.90
2023-05-11T13:43:36.364Z,14.00
2023-05-11T13:44:37.809Z,14.10
2023-05-11T13:45:41.307Z,14.30
2023-05-11T13:46:42.953Z,14.60
2023-05-11T13:47:45.837Z,14.80
2023-05-11T13:48:48.095Z,14.90
2023-05-11T13:49:50.327Z,15.00
2023-05-11T13:50:52.333Z,15.10
2023-05-11T13:51:55.478Z,15.20
2023-05-11T13:52:56.897Z,15.40